sensor_id;sensor_type;location;lat;lon;timestamp;pressure;altitude;pressure_sealevel;temperature;humidity
30021;BME280;16861;52.294;7.760;2023-02-21T00:02:01;100034.13;;;10.81;79.18
30021;BME280;16861;52.294;7.760;2023-02-21T00:04:46;100035.00;;;10.82;79.15
30021;BME280;16861;52.294;7.760;2023-02-21T00:07:32;100036.00;;;10.79;79.19
30021;BME280;16861;52.294;7.760;2023-02-21T00:10:17;100034.13;;;10.81;79.35
30021;BME280;16861;52.294;7.760;2023-02-21T00:13:02;100027.16;;;10.80;79.20
30021;BME280;16861;52.294;7.760;2023-02-21T00:15:47;100013.94;;;10.82;79.26
30021;BME280;16861;52.294;7.760;2023-02-21T00:18:34;100025.31;;;10.82;79.16
30021;BME280;16861;52.294;7.760;2023-02-21T00:21:18;100016.41;;;10.85;79.36
30021;BME280;16861;52.294;7.760;2023-02-21T00:24:04;100018.16;;;10.85;79.17
30021;BME280;16861;52.294;7.760;2023-02-21T00:26:49;100017.22;;;10.86;79.30
30021;BME280;16861;52.294;7.760;2023-02-21T00:29:34;100015.47;;;10.86;79.27
30021;BME280;16861;52.294;7.760;2023-02-21T00:32:20;100026.84;;;10.87;79.22
30021;BME280;16861;52.294;7.760;2023-02-21T00:35:05;100033.81;;;10.88;79.22
30021;BME280;16861;52.294;7.760;2023-02-21T00:37:50;100025.13;;;10.86;79.00
30021;BME280;16861;52.294;7.760;2023-02-21T00:40:36;100018.84;;;10.88;79.16
30021;BME280;16861;52.294;7.760;2023-02-21T00:43:33;100019.88;;;10.86;78.57
30021;BME280;16861;52.294;7.760;2023-02-21T00:46:20;100012.66;;;10.89;79.22
30021;BME280;16861;52.294;7.760;2023-02-21T00:49:05;100017.06;;;10.89;79.16
30021;BME280;16861;52.294;7.760;2023-02-21T00:51:51;100011.81;;;10.89;79.14
30021;BME280;16861;52.294;7.760;2023-02-21T00:54:36;100008.16;;;10.91;79.13
30021;BME280;16861;52.294;7.760;2023-02-21T00:57:21;100015.13;;;10.92;79.30
30021;BME280;16861;52.294;7.760;2023-02-21T01:00:13;100004.66;;;10.91;79.13
30021;BME280;16861;52.294;7.760;2023-02-21T01:02:58;100007.22;;;10.92;79.04
30021;BME280;16861;52.294;7.760;2023-02-21T01:05:43;100007.13;;;10.94;79.15
30021;BME280;16861;52.294;7.760;2023-02-21T01:08:29;100015.91;;;10.94;79.27
30021;BME280;16861;52.294;7.760;2023-02-21T01:11:19;100006.19;;;10.95;79.15
30021;BME280;16861;52.294;7.760;2023-02-21T01:14:06;100013.19;;;10.96;79.12
30021;BME280;16861;52.294;7.760;2023-02-21T01:16:53;100020.16;;;10.97;79.13
30021;BME280;16861;52.294;7.760;2023-02-21T01:19:40;100020.16;;;10.97;78.84
30021;BME280;16861;52.294;7.760;2023-02-21T01:22:27;100020.06;;;10.99;79.07
30021;BME280;16861;52.294;7.760;2023-02-21T01:25:12;100026.16;;;10.99;79.13
30021;BME280;16861;52.294;7.760;2023-02-21T01:27:57;100016.56;;;10.98;79.01
30021;BME280;16861;52.294;7.760;2023-02-21T01:30:43;100013.00;;;10.99;79.08
30021;BME280;16861;52.294;7.760;2023-02-21T01:33:28;100014.72;;;11.00;79.00
30021;BME280;16861;52.294;7.760;2023-02-21T01:36:13;100006.81;;;11.00;78.75
30021;BME280;16861;52.294;7.760;2023-02-21T01:38:58;100001.53;;;11.00;79.11
30021;BME280;16861;52.294;7.760;2023-02-21T01:41:44;99998.91;;;11.00;79.09
30021;BME280;16861;52.294;7.760;2023-02-21T01:44:33;100005.09;;;10.99;78.72
30021;BME280;16861;52.294;7.760;2023-02-21T01:47:19;100011.22;;;11.00;79.05
30021;BME280;16861;52.294;7.760;2023-02-21T01:50:26;100001.88;;;10.94;78.44
30021;BME280;16861;52.294;7.760;2023-02-21T01:53:23;99996.59;;;10.94;78.39
30021;BME280;16861;52.294;7.760;2023-02-21T01:56:09;99994.75;;;10.96;78.96
30021;BME280;16861;52.294;7.760;2023-02-21T01:58:57;99993.03;;;10.95;78.90
30021;BME280;16861;52.294;7.760;2023-02-21T02:02:01;99992.44;;;10.90;78.70
30021;BME280;16861;52.294;7.760;2023-02-21T02:04:48;100007.13;;;10.94;78.93
30021;BME280;16861;52.294;7.760;2023-02-21T02:07:36;100004.56;;;10.92;79.04
30021;BME280;16861;52.294;7.760;2023-02-21T02:10:22;100005.44;;;10.93;79.07
30021;BME280;16861;52.294;7.760;2023-02-21T02:35:12;100004.50;;;10.94;78.57
30021;BME280;16861;52.294;7.760;2023-02-21T02:37:58;100000.16;;;10.93;78.45
30021;BME280;16861;52.294;7.760;2023-02-21T02:40:51;100001.03;;;10.93;78.55
30021;BME280;16861;52.294;7.760;2023-02-21T02:44:05;99994.91;;;10.93;78.22
30021;BME280;16861;52.294;7.760;2023-02-21T02:46:37;99990.22;;;10.98;79.05
30021;BME280;16861;52.294;7.760;2023-02-21T02:49:17;100003.56;;;10.95;78.72
30021;BME280;16861;52.294;7.760;2023-02-21T02:51:45;99989.41;;;10.98;79.34
30021;BME280;16861;52.294;7.760;2023-02-21T02:54:11;99994.75;;;10.96;79.21
30021;BME280;16861;52.294;7.760;2023-02-21T02:56:38;99997.38;;;10.96;78.91
30021;BME280;16861;52.294;7.760;2023-02-21T02:59:13;99995.84;;;10.92;78.72
30021;BME280;16861;52.294;7.760;2023-02-21T03:07:10;99998.41;;;10.93;79.25
30021;BME280;16861;52.294;7.760;2023-02-21T03:10:02;99996.59;;;10.94;79.23
30021;BME280;16861;52.294;7.760;2023-02-21T03:15:08;100013.25;;;10.94;78.86
30021;BME280;16861;52.294;7.760;2023-02-21T03:17:39;100012.31;;;10.95;79.04
30021;BME280;16861;52.294;7.760;2023-02-21T03:20:11;100016.66;;;10.97;79.29
30021;BME280;16861;52.294;7.760;2023-02-21T03:22:39;100014.81;;;10.99;79.57
30021;BME280;16861;52.294;7.760;2023-02-21T03:25:07;100016.56;;;10.98;79.48
30021;BME280;16861;52.294;7.760;2023-02-21T03:27:35;100027.97;;;10.99;79.29
30021;BME280;16861;52.294;7.760;2023-02-21T03:30:05;100015.63;;;10.99;79.45
30021;BME280;16861;52.294;7.760;2023-02-21T03:32:36;100014.81;;;10.99;79.05
30021;BME280;16861;52.294;7.760;2023-02-21T03:35:05;100012.16;;;10.99;79.18
30021;BME280;16861;52.294;7.760;2023-02-21T03:37:38;100012.16;;;10.99;78.95
30021;BME280;16861;52.294;7.760;2023-02-21T03:40:11;100020.06;;;10.99;79.05
30021;BME280;16861;52.294;7.760;2023-02-21T03:42:38;100021.75;;;11.00;79.18
30021;BME280;16861;52.294;7.760;2023-02-21T03:45:05;100028.81;;;10.99;79.32
30021;BME280;16861;52.294;7.760;2023-02-21T03:47:31;100029.66;;;11.00;79.31
30021;BME280;16861;52.294;7.760;2023-02-21T03:49:58;100024.31;;;11.01;79.34
30021;BME280;16861;52.294;7.760;2023-02-21T03:52:25;100035.69;;;11.02;79.39
30021;BME280;16861;52.294;7.760;2023-02-21T03:54:51;100032.22;;;11.01;79.36
30021;BME280;16861;52.294;7.760;2023-02-21T03:57:18;100022.50;;;11.02;79.32
30021;BME280;16861;52.294;7.760;2023-02-21T03:59:45;100032.13;;;11.03;79.54
30021;BME280;16861;52.294;7.760;2023-02-21T04:02:11;100031.19;;;11.04;79.28
30021;BME280;16861;52.294;7.760;2023-02-21T04:04:38;100027.63;;;11.05;79.44
30021;BME280;16861;52.294;7.760;2023-02-21T04:07:04;100033.84;;;11.04;79.18
30021;BME280;16861;52.294;7.760;2023-02-21T04:09:31;100031.19;;;11.04;79.37
30021;BME280;16861;52.294;7.760;2023-02-21T04:11:57;100036.47;;;11.04;79.20
30021;BME280;16861;52.294;7.760;2023-02-21T04:14:24;100032.06;;;11.04;79.31
30021;BME280;16861;52.294;7.760;2023-02-21T04:16:50;100039.03;;;11.05;79.45
30021;BME280;16861;52.294;7.760;2023-02-21T04:19:17;100035.53;;;11.05;79.35
30021;BME280;16861;52.294;7.760;2023-02-21T04:21:43;100034.59;;;11.06;79.42
30021;BME280;16861;52.294;7.760;2023-02-21T04:24:10;100038.06;;;11.06;79.40
30021;BME280;16861;52.294;7.760;2023-02-21T04:26:37;100045.91;;;11.08;79.55
30021;BME280;16861;52.294;7.760;2023-02-21T04:29:03;100036.22;;;11.08;79.31
30021;BME280;16861;52.294;7.760;2023-02-21T04:31:30;100045.91;;;11.08;79.19
30021;BME280;16861;52.294;7.760;2023-02-21T04:33:58;100045.03;;;11.07;79.42
30021;BME280;16861;52.294;7.760;2023-02-21T04:36:37;100047.59;;;11.09;79.27
30021;BME280;16861;52.294;7.760;2023-02-21T04:39:05;100053.72;;;11.10;79.09
30021;BME280;16861;52.294;7.760;2023-02-21T04:41:32;100045.81;;;11.10;79.33
30021;BME280;16861;52.294;7.760;2023-02-21T04:43:59;100049.22;;;11.12;79.36
30021;BME280;16861;52.294;7.760;2023-02-21T04:46:26;100036.13;;;11.10;79.39
30021;BME280;16861;52.294;7.760;2023-02-21T04:48:52;100039.53;;;11.12;79.37
30021;BME280;16861;52.294;7.760;2023-02-21T04:51:22;100035.28;;;11.10;79.21
30021;BME280;16861;52.294;7.760;2023-02-21T04:53:49;100037.91;;;11.10;79.18
30021;BME280;16861;52.294;7.760;2023-02-21T04:56:19;100037.91;;;11.10;79.07
30021;BME280;16861;52.294;7.760;2023-02-21T04:58:47;100033.59;;;11.08;79.14
30021;BME280;16861;52.294;7.760;2023-02-21T05:01:15;100030.97;;;11.08;79.09
30021;BME280;16861;52.294;7.760;2023-02-21T05:03:43;100031.88;;;11.07;79.23
30021;BME280;16861;52.294;7.760;2023-02-21T05:08:50;100025.00;;;11.05;79.24
30021;BME280;16861;52.294;7.760;2023-02-21T05:11:18;100027.69;;;11.03;79.18
30021;BME280;16861;52.294;7.760;2023-02-21T05:13:46;100023.38;;;11.02;79.21
30021;BME280;16861;52.294;7.760;2023-02-21T05:16:12;100019.88;;;11.02;79.33
30021;BME280;16861;52.294;7.760;2023-02-21T05:18:44;100024.47;;;10.98;78.89
30021;BME280;16861;52.294;7.760;2023-02-21T05:21:11;100016.56;;;10.98;79.14
30021;BME280;16861;52.294;7.760;2023-02-21T05:23:39;100015.75;;;10.98;79.43
30021;BME280;16861;52.294;7.760;2023-02-21T05:26:11;100014.97;;;10.95;79.17
30021;BME280;16861;52.294;7.760;2023-02-21T05:28:39;100007.06;;;10.95;79.30
30021;BME280;16861;52.294;7.760;2023-02-21T05:31:06;100017.66;;;10.94;79.35
30021;BME280;16861;52.294;7.760;2023-02-21T05:33:33;100008.00;;;10.94;79.35
30021;BME280;16861;52.294;7.760;2023-02-21T05:36:00;100008.06;;;10.93;79.53
30021;BME280;16861;52.294;7.760;2023-02-21T05:38:27;100009.03;;;10.92;79.64
30021;BME280;16861;52.294;7.760;2023-02-21T05:40:53;100007.22;;;10.92;79.45
30021;BME280;16861;52.294;7.760;2023-02-21T05:43:20;100012.56;;;10.91;79.48
30021;BME280;16861;52.294;7.760;2023-02-21T05:45:46;100017.81;;;10.91;79.52
30021;BME280;16861;52.294;7.760;2023-02-21T05:48:13;100013.50;;;10.90;79.64
30021;BME280;16861;52.294;7.760;2023-02-21T05:50:40;100010.88;;;10.90;79.73
30021;BME280;16861;52.294;7.760;2023-02-21T05:53:07;100010.03;;;10.89;80.12
30021;BME280;16861;52.294;7.760;2023-02-21T05:55:36;100010.88;;;10.90;79.70
30021;BME280;16861;52.294;7.760;2023-02-21T05:58:03;100015.19;;;10.91;79.77
30021;BME280;16861;52.294;7.760;2023-02-21T06:00:29;100013.50;;;10.90;79.62
30021;BME280;16861;52.294;7.760;2023-02-21T06:02:56;100016.06;;;10.91;79.57
30021;BME280;16861;52.294;7.760;2023-02-21T06:05:23;100023.09;;;10.91;79.75
30021;BME280;16861;52.294;7.760;2023-02-21T06:07:50;100022.19;;;10.92;79.89
30021;BME280;16861;52.294;7.760;2023-02-21T06:10:18;100014.28;;;10.92;79.85
30021;BME280;16861;52.294;7.760;2023-02-21T06:12:45;100019.56;;;10.92;79.68
30021;BME280;16861;52.294;7.760;2023-02-21T06:15:11;100018.69;;;10.91;79.69
30021;BME280;16861;52.294;7.760;2023-02-21T06:17:39;100022.19;;;10.92;79.58
30021;BME280;16861;52.294;7.760;2023-02-21T06:20:12;100018.00;;;10.88;79.37
30021;BME280;16861;52.294;7.760;2023-02-21T06:22:40;100014.44;;;10.89;79.67
30021;BME280;16861;52.294;7.760;2023-02-21T06:25:07;100015.38;;;10.88;79.63
30021;BME280;16861;52.294;7.760;2023-02-21T06:27:33;100013.56;;;10.88;79.55
30021;BME280;16861;52.294;7.760;2023-02-21T06:30:01;100023.38;;;10.86;79.62
30021;BME280;16861;52.294;7.760;2023-02-21T06:32:27;100025.13;;;10.86;79.63
30021;BME280;16861;52.294;7.760;2023-02-21T06:34:54;100014.59;;;10.86;79.63
30021;BME280;16861;52.294;7.760;2023-02-21T06:37:21;100011.97;;;10.86;79.74
30021;BME280;16861;52.294;7.760;2023-02-21T06:39:47;100016.31;;;10.87;79.97
30021;BME280;16861;52.294;7.760;2023-02-21T06:42:15;100015.47;;;10.86;79.87
30021;BME280;16861;52.294;7.760;2023-02-21T06:44:46;100019.94;;;10.84;79.47
30021;BME280;16861;52.294;7.760;2023-02-21T06:47:14;100011.97;;;10.86;79.78
30021;BME280;16861;52.294;7.760;2023-02-21T06:49:42;100020.81;;;10.85;79.59
30021;BME280;16861;52.294;7.760;2023-02-21T06:52:09;100016.47;;;10.84;79.53
30021;BME280;16861;52.294;7.760;2023-02-21T06:54:36;100017.41;;;10.82;79.82
30021;BME280;16861;52.294;7.760;2023-02-21T06:57:03;100013.06;;;10.81;79.67
30021;BME280;16861;52.294;7.760;2023-02-21T06:59:31;100013.13;;;10.80;79.82
30021;BME280;16861;52.294;7.760;2023-02-21T07:01:57;100016.72;;;10.79;79.76
30021;BME280;16861;52.294;7.760;2023-02-21T07:04:24;100016.78;;;10.77;80.00
30021;BME280;16861;52.294;7.760;2023-02-21T07:06:51;100015.09;;;10.76;79.64
30021;BME280;16861;52.294;7.760;2023-02-21T07:09:18;100023.00;;;10.76;79.90
30021;BME280;16861;52.294;7.760;2023-02-21T07:11:44;100025.63;;;10.76;79.92
30021;BME280;16861;52.294;7.760;2023-02-21T07:14:13;100022.25;;;10.74;79.93
30021;BME280;16861;52.294;7.760;2023-02-21T07:16:39;100027.50;;;10.74;79.93
30021;BME280;16861;52.294;7.760;2023-02-21T07:19:06;100030.16;;;10.74;80.12
30021;BME280;16861;52.294;7.760;2023-02-21T07:21:32;100029.13;;;10.77;80.22
30021;BME280;16861;52.294;7.760;2023-02-21T07:23:59;100035.34;;;10.76;80.10
30021;BME280;16861;52.294;7.760;2023-02-21T07:26:25;100036.16;;;10.76;80.10
30021;BME280;16861;52.294;7.760;2023-02-21T07:28:52;100030.16;;;10.74;80.22
30021;BME280;16861;52.294;7.760;2023-02-21T07:31:18;100038.88;;;10.75;80.06
30021;BME280;16861;52.294;7.760;2023-02-21T07:33:46;100038.88;;;10.75;80.15
30021;BME280;16861;52.294;7.760;2023-02-21T07:36:12;100043.31;;;10.74;80.23
30021;BME280;16861;52.294;7.760;2023-02-21T07:38:39;100043.31;;;10.74;80.16
30021;BME280;16861;52.294;7.760;2023-02-21T07:41:05;100038.88;;;10.75;80.33
30021;BME280;16861;52.294;7.760;2023-02-21T07:43:32;100035.41;;;10.74;80.36
30021;BME280;16861;52.294;7.760;2023-02-21T07:45:59;100037.97;;;10.76;80.17
30021;BME280;16861;52.294;7.760;2023-02-21T07:48:26;100044.06;;;10.76;80.29
30021;BME280;16861;52.294;7.760;2023-02-21T07:50:52;100040.50;;;10.77;80.20
30021;BME280;16861;52.294;7.760;2023-02-21T07:53:19;100048.38;;;10.77;80.39
30021;BME280;16861;52.294;7.760;2023-02-21T07:55:46;100042.28;;;10.77;80.29
30021;BME280;16861;52.294;7.760;2023-02-21T07:58:12;100050.13;;;10.78;80.31
30021;BME280;16861;52.294;7.760;2023-02-21T08:00:39;100049.19;;;10.79;80.37
30021;BME280;16861;52.294;7.760;2023-02-21T08:03:06;100048.31;;;10.79;80.28
30021;BME280;16861;52.294;7.760;2023-02-21T08:05:32;100043.13;;;10.77;80.17
30021;BME280;16861;52.294;7.760;2023-02-21T08:07:59;100044.06;;;10.76;80.23
30021;BME280;16861;52.294;7.760;2023-02-21T08:10:26;100043.31;;;10.74;80.12
30021;BME280;16861;52.294;7.760;2023-02-21T08:12:53;100042.44;;;10.74;80.43
30021;BME280;16861;52.294;7.760;2023-02-21T08:15:20;100046.03;;;10.73;80.54
30021;BME280;16861;52.294;7.760;2023-02-21T08:17:47;100046.03;;;10.73;80.70
30021;BME280;16861;52.294;7.760;2023-02-21T08:20:14;100056.47;;;10.74;80.79
30021;BME280;16861;52.294;7.760;2023-02-21T08:22:41;100053.66;;;10.77;80.93
30021;BME280;16861;52.294;7.760;2023-02-21T08:25:10;100058.00;;;10.78;80.97
30021;BME280;16861;52.294;7.760;2023-02-21T08:27:40;100057.06;;;10.79;80.73
30021;BME280;16861;52.294;7.760;2023-02-21T08:30:09;100050.78;;;10.82;80.63
30021;BME280;16861;52.294;7.760;2023-02-21T08:32:36;100057.69;;;10.85;80.72
30021;BME280;16861;52.294;7.760;2023-02-21T08:35:03;100060.22;;;10.86;80.79
30021;BME280;16861;52.294;7.760;2023-02-21T08:37:32;100064.63;;;10.86;80.58
30021;BME280;16861;52.294;7.760;2023-02-21T08:40:02;100057.53;;;10.88;80.77
30021;BME280;16861;52.294;7.760;2023-02-21T08:42:29;100061.94;;;10.87;80.71
30021;BME280;16861;52.294;7.760;2023-02-21T08:44:55;100070.69;;;10.88;80.49
30021;BME280;16861;52.294;7.760;2023-02-21T08:47:23;100075.09;;;10.87;80.64
30021;BME280;16861;52.294;7.760;2023-02-21T08:49:49;100065.41;;;10.88;80.72
30021;BME280;16861;52.294;7.760;2023-02-21T08:52:17;100071.53;;;10.88;80.82
30021;BME280;16861;52.294;7.760;2023-02-21T08:54:44;100068.81;;;10.90;80.85
30021;BME280;16861;52.294;7.760;2023-02-21T08:57:12;100075.78;;;10.91;80.83
30021;BME280;16861;52.294;7.760;2023-02-21T08:59:40;100073.06;;;10.92;80.75
30021;BME280;16861;52.294;7.760;2023-02-21T09:02:22;100083.66;;;10.91;80.16
30021;BME280;16861;52.294;7.760;2023-02-21T09:05:21;100086.31;;;10.91;79.96
30021;BME280;16861;52.294;7.760;2023-02-21T09:07:50;100093.22;;;10.93;80.42
30021;BME280;16861;52.294;7.760;2023-02-21T09:10:20;100076.56;;;10.93;80.57
30021;BME280;16861;52.294;7.760;2023-02-21T09:12:47;100085.31;;;10.93;80.98
30021;BME280;16861;52.294;7.760;2023-02-21T09:15:14;100080.88;;;10.94;80.96
30021;BME280;16861;52.294;7.760;2023-02-21T09:17:42;100079.03;;;10.96;80.81
30021;BME280;16861;52.294;7.760;2023-02-21T09:20:12;100079.03;;;10.96;80.60
30021;BME280;16861;52.294;7.760;2023-02-21T09:22:44;100075.47;;;10.97;80.37
30021;BME280;16861;52.294;7.760;2023-02-21T09:25:11;100071.81;;;11.00;80.83
30021;BME280;16861;52.294;7.760;2023-02-21T09:27:39;100073.50;;;11.01;81.20
30021;BME280;16861;52.294;7.760;2023-02-21T09:32:38;100064.56;;;11.03;80.61
30021;BME280;16861;52.294;7.760;2023-02-21T09:35:05;100060.19;;;11.04;80.54
30021;BME280;16861;52.294;7.760;2023-02-21T09:37:32;100062.72;;;11.05;80.73
30021;BME280;16861;52.294;7.760;2023-02-21T09:40:02;100062.72;;;11.05;80.95
30021;BME280;16861;52.294;7.760;2023-02-21T09:42:30;100063.56;;;11.06;80.78
30021;BME280;16861;52.294;7.760;2023-02-21T09:44:57;100065.22;;;11.08;80.47
30021;BME280;16861;52.294;7.760;2023-02-21T09:47:30;100065.28;;;11.07;80.51
30021;BME280;16861;52.294;7.760;2023-02-21T09:50:05;100065.97;;;11.11;80.92
30021;BME280;16861;52.294;7.760;2023-02-21T09:52:35;100071.91;;;11.14;81.21
30021;BME280;16861;52.294;7.760;2023-02-21T09:57:55;100075.84;;;11.23;81.38
30021;BME280;16861;52.294;7.760;2023-02-21T10:00:33;100080.16;;;11.24;80.49
30021;BME280;16861;52.294;7.760;2023-02-21T10:03:14;100079.13;;;11.27;80.31
30021;BME280;16861;52.294;7.760;2023-02-21T10:05:50;100083.38;;;11.29;80.19
30021;BME280;16861;52.294;7.760;2023-02-21T10:16:28;100082.63;;;11.27;79.80
30021;BME280;16861;52.294;7.760;2023-02-21T10:19:20;100078.38;;;11.25;79.10
30021;BME280;16861;52.294;7.760;2023-02-21T10:21:49;100081.63;;;11.30;80.31
30021;BME280;16861;52.294;7.760;2023-02-21T10:24:20;100086.03;;;11.29;80.24
30021;BME280;16861;52.294;7.760;2023-02-21T10:27:08;100081.69;;;11.28;79.89
30021;BME280;16861;52.294;7.760;2023-02-21T10:29:55;100083.31;;;11.31;80.35
30021;BME280;16861;52.294;7.760;2023-02-21T10:32:23;100089.09;;;11.38;80.82
30021;BME280;16861;52.294;7.760;2023-02-21T10:34:51;100088.94;;;11.41;80.88
30021;BME280;16861;52.294;7.760;2023-02-21T10:39:55;100085.34;;;11.42;79.87
30021;BME280;16861;52.294;7.760;2023-02-21T10:42:33;100087.03;;;11.43;79.50
30021;BME280;16861;52.294;7.760;2023-02-21T10:45:03;100091.41;;;11.44;80.23
30021;BME280;16861;52.294;7.760;2023-02-21T10:50:08;100099.31;;;11.44;80.20
30021;BME280;16861;52.294;7.760;2023-02-21T10:52:48;100104.75;;;11.41;79.39
30021;BME280;16861;52.294;7.760;2023-02-21T10:55:19;100094.94;;;11.43;79.52
30021;BME280;16861;52.294;7.760;2023-02-21T10:58:05;100101.25;;;11.40;79.74
30021;BME280;16861;52.294;7.760;2023-02-21T11:00:36;100095.91;;;11.42;80.26
30021;BME280;16861;52.294;7.760;2023-02-21T11:03:26;100105.50;;;11.43;80.06
30021;BME280;16861;52.294;7.760;2023-02-21T11:05:55;100101.84;;;11.45;80.53
30021;BME280;16861;52.294;7.760;2023-02-21T11:08:42;100095.75;;;11.45;80.29
30021;BME280;16861;52.294;7.760;2023-02-21T11:11:09;100088.25;;;11.53;81.34
30021;BME280;16861;52.294;7.760;2023-02-21T11:13:36;100080.94;;;11.58;81.21
30021;BME280;16861;52.294;7.760;2023-02-21T11:16:29;100086.13;;;11.60;80.27
30021;BME280;16861;52.294;7.760;2023-02-21T11:19:05;100093.59;;;11.68;80.25
30021;BME280;16861;52.294;7.760;2023-02-21T11:21:32;100085.44;;;11.72;80.85
30021;BME280;16861;52.294;7.760;2023-02-21T11:24:01;100088.81;;;11.75;80.22
30021;BME280;16861;52.294;7.760;2023-02-21T11:26:36;100089.50;;;11.78;79.74
30021;BME280;16861;52.294;7.760;2023-02-21T11:29:13;100094.75;;;11.78;79.11
30021;BME280;16861;52.294;7.760;2023-02-21T11:31:42;100090.25;;;11.80;79.46
30021;BME280;16861;52.294;7.760;2023-02-21T11:34:11;100079.97;;;11.76;79.15
30021;BME280;16861;52.294;7.760;2023-02-21T11:36:41;100085.44;;;11.72;79.07
30021;BME280;16861;52.294;7.760;2023-02-21T11:39:23;100075.13;;;11.68;78.93
30021;BME280;16861;52.294;7.760;2023-02-21T11:41:54;100075.91;;;11.70;79.77
30021;BME280;16861;52.294;7.760;2023-02-21T11:44:33;100077.78;;;11.68;79.58
30021;BME280;16861;52.294;7.760;2023-02-21T11:49:50;100066.28;;;11.69;79.57
30021;BME280;16861;52.294;7.760;2023-02-21T11:52:25;100074.97;;;11.71;79.33
30021;BME280;16861;52.294;7.760;2023-02-21T11:54:57;100069.53;;;11.74;79.93
30021;BME280;16861;52.294;7.760;2023-02-21T12:00:50;100064.59;;;11.68;78.85
30021;BME280;16861;52.294;7.760;2023-02-21T12:03:44;100054.03;;;11.68;78.78
30021;BME280;16861;52.294;7.760;2023-02-21T12:12:15;100056.69;;;11.68;78.69
30021;BME280;16861;52.294;7.760;2023-02-21T12:15:03;100060.34;;;11.65;78.69
30021;BME280;16861;52.294;7.760;2023-02-21T12:17:41;100053.38;;;11.64;78.75
30021;BME280;16861;52.294;7.760;2023-02-21T12:20:24;100056.19;;;11.61;78.69
30021;BME280;16861;52.294;7.760;2023-02-21T12:23:06;100058.16;;;11.57;78.78
30021;BME280;16861;52.294;7.760;2023-02-21T12:26:02;100054.94;;;11.52;78.66
30021;BME280;16861;52.294;7.760;2023-02-21T12:42:34;100037.06;;;11.41;79.66
30021;BME280;16861;52.294;7.760;2023-02-21T12:47:57;100044.13;;;11.41;79.73
30021;BME280;16861;52.294;7.760;2023-02-21T12:50:49;100034.59;;;11.38;79.49
30021;BME280;16861;52.294;7.760;2023-02-21T12:53:28;100033.66;;;11.39;79.61
30021;BME280;16861;52.294;7.760;2023-02-21T12:56:06;100030.94;;;11.41;79.86
30021;BME280;16861;52.294;7.760;2023-02-21T12:58:47;100030.78;;;11.44;80.02
30021;BME280;16861;52.294;7.760;2023-02-21T13:01:32;100037.75;;;11.45;79.83
30021;BME280;16861;52.294;7.760;2023-02-21T13:04:11;100027.03;;;11.48;79.76
30021;BME280;16861;52.294;7.760;2023-02-21T13:06:51;100036.47;;;11.52;80.08
30021;BME280;16861;52.294;7.760;2023-02-21T13:09:33;100028.38;;;11.55;80.16
30021;BME280;16861;52.294;7.760;2023-02-21T13:12:12;100029.91;;;11.59;80.19
30021;BME280;16861;52.294;7.760;2023-02-21T13:14:44;100032.28;;;11.64;80.54
30021;BME280;16861;52.294;7.760;2023-02-21T13:17:13;100030.22;;;11.69;79.33
30021;BME280;16861;52.294;7.760;2023-02-21T13:19:58;100030.81;;;11.75;79.21
30021;BME280;16861;52.294;7.760;2023-02-21T13:28:23;100017.94;;;11.84;79.87
30021;BME280;16861;52.294;7.760;2023-02-21T13:30:56;100021.31;;;11.86;79.97
30021;BME280;16861;52.294;7.760;2023-02-21T13:35:56;100007.03;;;11.91;79.52
30021;BME280;16861;52.294;7.760;2023-02-21T13:38:28;100006.19;;;11.90;78.78
30021;BME280;16861;52.294;7.760;2023-02-21T13:41:11;100009.16;;;11.84;77.38
30021;BME280;16861;52.294;7.760;2023-02-21T13:43:49;100015.47;;;11.81;77.49
30021;BME280;16861;52.294;7.760;2023-02-21T13:52:25;100004.84;;;11.52;77.45
30021;BME280;16861;52.294;7.760;2023-02-21T13:58:05;100004.66;;;11.39;77.76
30021;BME280;16861;52.294;7.760;2023-02-21T14:08:31;99992.78;;;11.16;78.73
30021;BME280;16861;52.294;7.760;2023-02-21T14:13:33;99997.38;;;11.12;79.37
30021;BME280;16861;52.294;7.760;2023-02-21T14:18:44;99988.97;;;11.05;79.49
30021;BME280;16861;52.294;7.760;2023-02-21T14:21:32;99994.25;;;11.05;79.19
30021;BME280;16861;52.294;7.760;2023-02-21T14:26:44;99989.91;;;11.04;79.51
30021;BME280;16861;52.294;7.760;2023-02-21T14:37:18;99984.81;;;11.01;79.74
30021;BME280;16861;52.294;7.760;2023-02-21T14:39:58;99988.28;;;11.02;79.69
30021;BME280;16861;52.294;7.760;2023-02-21T14:42:35;99989.06;;;11.04;79.75
30021;BME280;16861;52.294;7.760;2023-02-21T14:48:09;99991.59;;;11.05;79.78
30021;BME280;16861;52.294;7.760;2023-02-21T14:50:58;99975.53;;;11.10;80.15
30021;BME280;16861;52.294;7.760;2023-02-21T15:01:41;99983.84;;;11.02;79.32
30021;BME280;16861;52.294;7.760;2023-02-21T15:04:41;99984.22;;;10.96;79.35
30021;BME280;16861;52.294;7.760;2023-02-21T15:12:34;99987.69;;;10.97;79.35
30021;BME280;16861;52.294;7.760;2023-02-21T15:15:03;99980.47;;;11.00;79.54
30021;BME280;16861;52.294;7.760;2023-02-21T15:17:29;99986.78;;;10.98;80.14
30021;BME280;16861;52.294;7.760;2023-02-21T15:20:22;99982.69;;;10.92;79.95
30021;BME280;16861;52.294;7.760;2023-02-21T15:23:17;99982.69;;;10.92;79.72
30021;BME280;16861;52.294;7.760;2023-02-21T15:25:53;99987.75;;;10.95;79.89
30021;BME280;16861;52.294;7.760;2023-02-21T15:28:26;99987.75;;;10.95;79.73
30021;BME280;16861;52.294;7.760;2023-02-21T15:31:05;99991.25;;;10.95;79.71
30021;BME280;16861;52.294;7.760;2023-02-21T15:33:35;99992.03;;;10.98;79.90
30021;BME280;16861;52.294;7.760;2023-02-21T15:36:17;99997.38;;;10.96;79.58
30021;BME280;16861;52.294;7.760;2023-02-21T15:41:26;99990.38;;;10.95;79.88
30021;BME280;16861;52.294;7.760;2023-02-21T15:44:17;99997.78;;;10.88;79.37
30021;BME280;16861;52.294;7.760;2023-02-21T15:49:24;100000.34;;;10.90;80.08